CheckWX is a tool to help pilots better visualize weather data.  It is not intended as a substitute for an official pre-flight weather briefing.

20:57:10 UTC

KMBG METAR
Mobridge Municipal Airport
Mobridge, South Dakota, USA
Current

1 hour ago

KMBG 211952Z AUTO 00000KT 10SM CLR 05/M06 A3006 RMK AO2 SLP201 T00501061
Observed
Feb-21 @ 19:52 UTC
Visibility
10 SM
Flight Rules
VFR
Cloud Levels
  • Clear skies
Temperature
C / 41°F
Dewpoint
-6°C / 21°F
Humidity
45%
Altimeter
30.06" Hg
Pressure
1017.92 hPa
Previous

2 hours ago

KMBG 211852Z AUTO 31005KT 10SM CLR 04/M07 A3009 RMK AO2 SLP209 T00441067
Observed
Feb-21 @ 18:52 UTC
Wind
  • 310° at 5 KTS
Visibility
10 SM
Flight Rules
VFR
Cloud Levels
  • Clear skies
Temperature
C / 39°F
Dewpoint
-7°C / 19°F
Humidity
45%
Altimeter
30.09" Hg
Pressure
1018.92 hPa
Previous

3 hours ago

KMBG 211752Z AUTO 29007KT 10SM CLR 02/M08 A3010 RMK AO2 SLP216 T00221078 10022 21128 50003
Observed
Feb-21 @ 17:52 UTC
Wind
  • 290° at 7 KTS
Visibility
10 SM
Flight Rules
VFR
Cloud Levels
  • Clear skies
Temperature
C / 36°F
Dewpoint
-8°C / 18°F
Humidity
48%
Altimeter
30.1" Hg
Pressure
1019.32 hPa